ACA290 CYLW-CYVR
Flight info
| Callsign | ACA290 |
|---|---|
| Flight time | N/A |
| Altitude | 26000 |
| Route | MRYT5 MERYT DCT BOOTH CANUC5 |
| Aircraft | B738/M-SDGIJ1LRWY/SB1 |
Departure
| Time | 2026-05-03 20:43 |
|---|---|
| Airport | Kelowna International Airport (CYLW) |
Arrival
| Time | N/A |
|---|---|
| Airport | Vancouver International Airport (CYVR) |
| Time | Latitude | Longitude | Altitude | Speed | Heading |
|---|---|---|---|---|---|
| 2026-05-03 20:32 | 51.13334 | -114.01337 | 3551 ft | 0 kts | 189° |
| 2026-05-03 20:35 | 49.95193 | -119.38021 | 1421 ft | 0 kts | 297° |
| 2026-05-03 20:39 | 49.95187 | -119.37998 | 1418 ft | 4 kts | 282° |
| 2026-05-03 20:39 | 49.95197 | -119.37957 | 1418 ft | 1 kts | 206° |
| 2026-05-03 20:39 | 49.95175 | -119.37953 | 1418 ft | 0 kts | 159° |
| 2026-05-03 20:39 | 49.95175 | -119.37952 | 1418 ft | 0 kts | 159° |
| 2026-05-03 20:40 | 49.95156 | -119.37942 | 1417 ft | 10 kts | 164° |
| 2026-05-03 20:40 | 49.95033 | -119.37909 | 1413 ft | 21 kts | 173° |
| 2026-05-03 20:40 | 49.94904 | -119.37824 | 1412 ft | 20 kts | 173° |
| 2026-05-03 20:40 | 49.94792 | -119.37780 | 1413 ft | 0 kts | 137° |
| 2026-05-03 20:41 | 49.94778 | -119.37750 | 1414 ft | 7 kts | 121° |
| 2026-05-03 20:41 | 49.94727 | -119.37654 | 1416 ft | 15 kts | 144° |
| 2026-05-03 20:41 | 49.94599 | -119.37598 | 1420 ft | 23 kts | 166° |
| 2026-05-03 20:42 | 49.94558 | -119.37628 | 1420 ft | 0 kts | 352° |
| 2026-05-03 20:42 | 49.94595 | -119.37637 | 1419 ft | 31 kts | 352° |
| 2026-05-03 20:42 | 49.95110 | -119.37724 | 1418 ft | 116 kts | 355° |
| 2026-05-03 20:43 | 49.96130 | -119.37912 | 1618 ft | 167 kts | 353° |
| 2026-05-03 20:43 | 49.97236 | -119.38052 | 2545 ft | 162 kts | 356° |
| 2026-05-03 20:43 | 49.98377 | -119.38174 | 3332 ft | 171 kts | 355° |
| 2026-05-03 20:43 | 49.99484 | -119.38386 | 3958 ft | 180 kts | 347° |
| 2026-05-03 20:44 | 50.00717 | -119.38937 | 4612 ft | 192 kts | 343° |
| 2026-05-03 20:44 | 50.01930 | -119.39522 | 5246 ft | 203 kts | 343° |
| 2026-05-03 20:44 | 50.03319 | -119.40139 | 5945 ft | 215 kts | 345° |
| 2026-05-03 20:44 | 50.04600 | -119.40684 | 6524 ft | 227 kts | 345° |
| 2026-05-03 20:45 | 50.05755 | -119.41170 | 7041 ft | 237 kts | 345° |
| 2026-05-03 20:45 | 50.07320 | -119.41831 | 8003 ft | 237 kts | 345° |
| 2026-05-03 20:45 | 50.08898 | -119.42501 | 8994 ft | 237 kts | 345° |
| 2026-05-03 20:45 | 50.10505 | -119.42933 | 9844 ft | 242 kts | 3° |
| 2026-05-03 20:46 | 50.12084 | -119.42111 | 10686 ft | 250 kts | 33° |
| 2026-05-03 20:46 | 50.13302 | -119.40178 | 11567 ft | 255 kts | 48° |
| 2026-05-03 20:46 | 50.14555 | -119.38310 | 12413 ft | 253 kts | 30° |
| 2026-05-03 20:46 | 50.16103 | -119.37164 | 13273 ft | 252 kts | 19° |
| 2026-05-03 20:47 | 50.17746 | -119.36227 | 14052 ft | 256 kts | 19° |
| 2026-05-03 20:47 | 50.19399 | -119.35213 | 14818 ft | 260 kts | 21° |
| 2026-05-03 20:47 | 50.21081 | -119.34106 | 15585 ft | 264 kts | 18° |
| 2026-05-03 20:47 | 50.22780 | -119.33730 | 15989 ft | 276 kts | 352° |
| 2026-05-03 20:48 | 50.24468 | -119.34746 | 16410 ft | 291 kts | 325° |
| 2026-05-03 20:48 | 50.25015 | -119.35473 | 16556 ft | 299 kts | 315° |
| 2026-05-03 20:48 | 50.25706 | -119.36942 | 16842 ft | 309 kts | 301° |
| 2026-05-03 20:48 | 50.26307 | -119.40244 | 17262 ft | 332 kts | 275° |
| 2026-05-03 20:49 | 50.26020 | -119.43916 | 17708 ft | 352 kts | 260° |
| 2026-05-03 20:49 | 50.25331 | -119.47617 | 18164 ft | 367 kts | 255° |
| 2026-05-03 20:49 | 50.24490 | -119.51455 | 18604 ft | 382 kts | 253° |
| 2026-05-03 20:49 | 50.23602 | -119.55424 | 19089 ft | 395 kts | 254° |
| 2026-05-03 20:50 | 50.22706 | -119.59549 | 19513 ft | 409 kts | 255° |
| 2026-05-03 20:50 | 50.21808 | -119.63821 | 19912 ft | 423 kts | 255° |
| 2026-05-03 20:50 | 50.20891 | -119.68276 | 20340 ft | 437 kts | 255° |
| 2026-05-03 20:50 | 50.19971 | -119.72784 | 20732 ft | 450 kts | 255° |
| 2026-05-03 20:51 | 50.19018 | -119.77470 | 21219 ft | 460 kts | 255° |
| 2026-05-03 20:51 | 50.18044 | -119.82257 | 21855 ft | 467 kts | 255° |
| 2026-05-03 20:51 | 50.17063 | -119.87060 | 22578 ft | 471 kts | 255° |
| 2026-05-03 20:51 | 50.16046 | -119.91912 | 23303 ft | 475 kts | 252° |
| 2026-05-03 20:52 | 50.14539 | -119.96521 | 23969 ft | 483 kts | 237° |
| 2026-05-03 20:52 | 50.12278 | -120.00380 | 24885 ft | 486 kts | 222° |
| 2026-05-03 20:52 | 50.09484 | -120.03183 | 25662 ft | 488 kts | 207° |
| 2026-05-03 20:52 | 50.06265 | -120.04877 | 26054 ft | 494 kts | 192° |
| 2026-05-03 20:53 | 50.02819 | -120.05456 | 26110 ft | 495 kts | 182° |
| 2026-05-03 20:53 | 49.99491 | -120.05413 | 26111 ft | 488 kts | 178° |
| 2026-05-03 20:53 | 49.96184 | -120.05206 | 26107 ft | 492 kts | 177° |
| 2026-05-03 20:53 | 49.92772 | -120.04896 | 26107 ft | 491 kts | 176° |
| 2026-05-03 20:54 | 49.89366 | -120.04502 | 26109 ft | 489 kts | 175° |
| 2026-05-03 20:54 | 49.82568 | -120.03637 | 26108 ft | 490 kts | 175° |
| 2026-05-03 20:54 | 49.79213 | -120.03201 | 26106 ft | 491 kts | 175° |
| 2026-05-03 20:55 | 49.75833 | -120.02761 | 26104 ft | 490 kts | 175° |
| 2026-05-03 20:55 | 49.72419 | -120.02321 | 26106 ft | 490 kts | 175° |
| 2026-05-03 20:55 | 49.69031 | -120.02375 | 26109 ft | 488 kts | 187° |
| 2026-05-03 20:55 | 49.65770 | -120.03694 | 26118 ft | 487 kts | 203° |
| 2026-05-03 20:56 | 49.62879 | -120.06220 | 26122 ft | 485 kts | 219° |
| 2026-05-03 20:56 | 49.60622 | -120.09584 | 26117 ft | 482 kts | 233° |
| 2026-05-03 20:56 | 49.58915 | -120.13904 | 26113 ft | 478 kts | 249° |
| 2026-05-03 20:56 | 49.58003 | -120.18790 | 26119 ft | 471 kts | 264° |
| 2026-05-03 20:57 | 49.57961 | -120.23776 | 26123 ft | 466 kts | 279° |
| 2026-05-03 20:57 | 49.58515 | -120.28624 | 26119 ft | 464 kts | 286° |
| 2026-05-03 20:57 | 49.59321 | -120.33423 | 26100 ft | 462 kts | 288° |
| 2026-05-03 20:57 | 49.60217 | -120.38152 | 26092 ft | 462 kts | 290° |
| 2026-05-03 20:58 | 49.61146 | -120.42870 | 26078 ft | 462 kts | 290° |
| 2026-05-03 20:58 | 49.62077 | -120.47546 | 26069 ft | 461 kts | 290° |
| 2026-05-03 20:58 | 49.63023 | -120.52272 | 26056 ft | 460 kts | 290° |
| 2026-05-03 20:58 | 49.63971 | -120.57001 | 26056 ft | 462 kts | 290° |
| 2026-05-03 20:59 | 49.64996 | -120.61647 | 26060 ft | 458 kts | 296° |
| 2026-05-03 20:59 | 49.66573 | -120.65820 | 25993 ft | 458 kts | 308° |
| 2026-05-03 20:59 | 49.68498 | -120.69780 | 25601 ft | 457 kts | 307° |
| 2026-05-03 20:59 | 49.70135 | -120.73918 | 25208 ft | 462 kts | 299° |
| 2026-05-03 21:00 | 49.71355 | -120.78456 | 24817 ft | 464 kts | 290° |
| 2026-05-03 21:00 | 49.71660 | -120.80045 | 24682 ft | 465 kts | 287° |
| 2026-05-03 21:00 | 49.72591 | -120.88293 | 24002 ft | 471 kts | 278° |
| 2026-05-03 21:00 | 49.72912 | -120.93131 | 23646 ft | 466 kts | 277° |
| 2026-05-03 21:01 | 49.73174 | -120.97781 | 23265 ft | 461 kts | 277° |
| 2026-05-03 21:01 | 49.73421 | -121.02464 | 22884 ft | 459 kts | 276° |
| 2026-05-03 21:01 | 49.73665 | -121.07200 | 22503 ft | 456 kts | 277° |
| 2026-05-03 21:01 | 49.73912 | -121.12081 | 22109 ft | 453 kts | 277° |
| 2026-05-03 21:02 | 49.74157 | -121.16901 | 21723 ft | 452 kts | 277° |
| 2026-05-03 21:02 | 49.74400 | -121.21703 | 21340 ft | 448 kts | 277° |
| 2026-05-03 21:02 | 49.74626 | -121.26488 | 21035 ft | 445 kts | 275° |
| 2026-05-03 21:02 | 49.74609 | -121.31257 | 20774 ft | 446 kts | 269° |
| 2026-05-03 21:03 | 49.74301 | -121.35966 | 20515 ft | 447 kts | 264° |
| 2026-05-03 21:03 | 49.73734 | -121.40671 | 20250 ft | 446 kts | 259° |
| 2026-05-03 21:03 | 49.72963 | -121.45235 | 19989 ft | 447 kts | 256° |
| 2026-05-03 21:03 | 49.72001 | -121.49784 | 19725 ft | 445 kts | 252° |
| 2026-05-03 21:04 | 49.70881 | -121.54182 | 19472 ft | 444 kts | 249° |
| 2026-05-03 21:04 | 49.69608 | -121.58507 | 19214 ft | 443 kts | 246° |
| 2026-05-03 21:04 | 49.68227 | -121.62733 | 18962 ft | 443 kts | 244° |
| 2026-05-03 21:04 | 49.66776 | -121.66897 | 18698 ft | 442 kts | 243° |
| 2026-05-03 21:05 | 49.65291 | -121.70982 | 18441 ft | 441 kts | 241° |
| 2026-05-03 21:05 | 49.63784 | -121.74998 | 18182 ft | 438 kts | 241° |
| 2026-05-03 21:05 | 49.62221 | -121.79073 | 17868 ft | 438 kts | 240° |
| 2026-05-03 21:05 | 49.60642 | -121.83134 | 17185 ft | 435 kts | 240° |
| 2026-05-03 21:06 | 49.59170 | -121.86887 | 16577 ft | 430 kts | 240° |
| 2026-05-03 21:06 | 49.57761 | -121.90466 | 16127 ft | 421 kts | 240° |
| 2026-05-03 21:06 | 49.56393 | -121.93932 | 15346 ft | 421 kts | 240° |
| 2026-05-03 21:06 | 49.54936 | -121.97623 | 14598 ft | 420 kts | 240° |
| 2026-05-03 21:07 | 49.53445 | -122.01398 | 14153 ft | 414 kts | 240° |
| 2026-05-03 21:07 | 49.51954 | -122.05172 | 13785 ft | 416 kts | 240° |
| 2026-05-03 21:07 | 49.50470 | -122.08902 | 13427 ft | 413 kts | 239° |
| 2026-05-03 21:07 | 49.48972 | -122.12634 | 13057 ft | 412 kts | 239° |
| 2026-05-03 21:08 | 49.47512 | -122.16256 | 12704 ft | 411 kts | 239° |
| 2026-05-03 21:08 | 49.46057 | -122.19871 | 12332 ft | 408 kts | 239° |
| 2026-05-03 21:08 | 49.44557 | -122.23629 | 11987 ft | 405 kts | 239° |
| 2026-05-03 21:08 | 49.43080 | -122.27348 | 11654 ft | 406 kts | 239° |
| 2026-05-03 21:09 | 49.41619 | -122.31034 | 11293 ft | 404 kts | 239° |
| 2026-05-03 21:09 | 49.40152 | -122.34589 | 10921 ft | 399 kts | 236° |
| 2026-05-03 21:09 | 49.38541 | -122.37859 | 10584 ft | 398 kts | 231° |
| 2026-05-03 21:09 | 49.36848 | -122.40911 | 10250 ft | 396 kts | 229° |
| 2026-05-03 21:10 | 49.35093 | -122.43900 | 9919 ft | 393 kts | 228° |
| 2026-05-03 21:10 | 49.33323 | -122.46853 | 9572 ft | 391 kts | 227° |
| 2026-05-03 21:10 | 49.31627 | -122.49664 | 9247 ft | 390 kts | 227° |
| 2026-05-03 21:10 | 49.29837 | -122.52621 | 8891 ft | 385 kts | 227° |
| 2026-05-03 21:11 | 49.28070 | -122.55550 | 8550 ft | 383 kts | 227° |
| 2026-05-03 21:11 | 49.26306 | -122.58507 | 8208 ft | 381 kts | 228° |
| 2026-05-03 21:11 | 49.24584 | -122.61422 | 7860 ft | 381 kts | 228° |
| 2026-05-03 21:11 | 49.22909 | -122.64272 | 7513 ft | 377 kts | 228° |
| 2026-05-03 21:12 | 49.21317 | -122.67044 | 7192 ft | 378 kts | 231° |
| 2026-05-03 21:12 | 49.20002 | -122.69833 | 6878 ft | 369 kts | 236° |
| 2026-05-03 21:12 | 49.18759 | -122.72884 | 6542 ft | 359 kts | 239° |
| 2026-05-03 21:12 | 49.17635 | -122.75857 | 6313 ft | 348 kts | 240° |
| 2026-05-03 21:13 | 49.16687 | -122.78877 | 6131 ft | 335 kts | 251° |
| 2026-05-03 21:13 | 49.16208 | -122.82031 | 5962 ft | 322 kts | 264° |
| 2026-05-03 21:13 | 49.16281 | -122.85154 | 5691 ft | 305 kts | 284° |
| 2026-05-03 21:13 | 49.16859 | -122.87878 | 5379 ft | 288 kts | 290° |
| 2026-05-03 21:14 | 49.17350 | -122.90445 | 4963 ft | 277 kts | 283° |
| 2026-05-03 21:14 | 49.17652 | -122.93020 | 4602 ft | 267 kts | 279° |
| 2026-05-03 21:14 | 49.17870 | -122.95564 | 4310 ft | 255 kts | 278° |
| 2026-05-03 21:14 | 49.18066 | -122.97993 | 4021 ft | 244 kts | 277° |
| 2026-05-03 21:15 | 49.18342 | -123.00308 | 3758 ft | 236 kts | 292° |
| 2026-05-03 21:15 | 49.19183 | -123.02193 | 3386 ft | 225 kts | 321° |
| 2026-05-03 21:15 | 49.20438 | -123.03097 | 3066 ft | 213 kts | 352° |
| 2026-05-03 21:15 | 49.21732 | -123.03000 | 2997 ft | 194 kts | 18° |
| 2026-05-03 21:16 | 49.22694 | -123.02023 | 2986 ft | 186 kts | 52° |
| 2026-05-03 21:16 | 49.23115 | -123.00332 | 2989 ft | 190 kts | 85° |
| 2026-05-03 21:16 | 49.23032 | -122.98473 | 3000 ft | 194 kts | 95° |
| 2026-05-03 21:16 | 49.22863 | -122.96383 | 3034 ft | 230 kts | 95° |
| 2026-05-03 21:17 | 49.22681 | -122.94039 | 3028 ft | 245 kts | 95° |
| 2026-05-03 21:17 | 49.22539 | -122.92411 | 3020 ft | 248 kts | 99° |
| 2026-05-03 21:17 | 49.21608 | -122.89579 | 3021 ft | 252 kts | 132° |
| 2026-05-03 21:17 | 49.20212 | -122.88226 | 3029 ft | 255 kts | 160° |
| 2026-05-03 21:18 | 49.18643 | -122.87922 | 3019 ft | 248 kts | 181° |
| 2026-05-03 21:18 | 49.17102 | -122.88087 | 3033 ft | 233 kts | 185° |
| 2026-05-03 21:18 | 49.15593 | -122.88310 | 3036 ft | 232 kts | 187° |
| 2026-05-03 21:18 | 49.14177 | -122.89071 | 3021 ft | 224 kts | 215° |
| 2026-05-03 21:19 | 49.13260 | -122.90726 | 3012 ft | 202 kts | 249° |
| 2026-05-03 21:19 | 49.13153 | -122.92711 | 3016 ft | 191 kts | 285° |
| 2026-05-03 21:19 | 49.13784 | -122.94357 | 2920 ft | 189 kts | 313° |
| 2026-05-03 21:19 | 49.14621 | -122.95676 | 2648 ft | 190 kts | 316° |
| 2026-05-03 21:20 | 49.15461 | -122.96976 | 2351 ft | 187 kts | 315° |
| 2026-05-03 21:20 | 49.16312 | -122.98319 | 2054 ft | 188 kts | 313° |
| 2026-05-03 21:20 | 49.17086 | -122.99764 | 1924 ft | 181 kts | 308° |
| 2026-05-03 21:20 | 49.17657 | -123.01379 | 1941 ft | 173 kts | 292° |
| 2026-05-03 21:21 | 49.18150 | -123.02891 | 1925 ft | 166 kts | 301° |
| 2026-05-03 21:21 | 49.18649 | -123.04358 | 1797 ft | 160 kts | 291° |
| 2026-05-03 21:21 | 49.18885 | -123.05898 | 1606 ft | 150 kts | 281° |
| 2026-05-03 21:21 | 49.19052 | -123.07362 | 1397 ft | 147 kts | 282° |
| 2026-05-03 21:22 | 49.19218 | -123.08771 | 1240 ft | 141 kts | 282° |
| 2026-05-03 21:22 | 49.19378 | -123.10181 | 899 ft | 148 kts | 281° |
| 2026-05-03 21:22 | 49.19532 | -123.11657 | 593 ft | 150 kts | 280° |
| 2026-05-03 21:22 | 49.19712 | -123.13021 | 381 ft | 143 kts | 283° |
| 2026-05-03 21:23 | 49.19877 | -123.14408 | 206 ft | 140 kts | 281° |
| 2026-05-03 21:23 | 49.20031 | -123.15829 | 77 ft | 134 kts | 282° |
| 2026-05-03 21:23 | 49.20185 | -123.17110 | 16 ft | 94 kts | 276° |